Time;durP1;ratioP1;P1;durP2;ratioP2;P2;SDS_P1;SDS_P2;PMS_P1;PMS_P2;Temp;Humidity;BMP_temperature;BMP_pressure;BME280_temperature;BME280_humidity;BME280_pressure;Samples;Min_cycle;Max_cycle;Signal;HPM_P1;HPM_P2
2021/11/18 00:01:21;;;;;;;27.67;18.50;;;;;;;;;;143737;649;45023;-55
2021/11/18 00:03:49;;;;;;;21.35;15.45;;;;;;;;;;143740;652;45871;-55
2021/11/18 00:06:17;;;;;;;41.42;25.88;;;;;;;;;;143742;602;46020;-55
2021/11/18 00:08:48;;;;;;;27.08;19.98;;;;;;;;;;143737;578;45021;-56
2021/11/18 00:11:20;;;;;;;31.75;21.95;;;;;;;;;;143737;602;46020;-56
2021/11/18 00:13:56;;;;;;;37.35;26.67;;;;;;;;;;143742;601;45917;-56
2021/11/18 00:16:24;;;;;;;;;;;;;;;;;;143747;981;45912;-55
2021/11/18 00:18:55;;;;;;;37.22;24.85;;;;;;;;;;143751;576;45020;-55
2021/11/18 00:21:30;;;;;;;32.30;23.25;;;;;;;;;;143736;583;46020;-56
2021/11/18 00:24:01;;;;;;;30.60;21.25;;;;;;;;;;143736;569;45917;-56
2021/11/18 00:26:33;;;;;;;36.30;24.85;;;;;;;;;;143744;580;45036;-56
2021/11/18 00:29:08;;;;;;;36.40;24.40;;;;;;;;;;143740;579;45032;-55
2021/11/18 00:31:41;;;;;;;35.38;25.92;;;;;;;;;;143738;583;45023;-55
2021/11/18 00:34:13;;;;;;;19.35;16.27;;;;;;;;;;143736;604;46012;-56
2021/11/18 00:36:45;;;;;;;31.25;21.52;;;;;;;;;;143740;715;45020;-55
2021/11/18 00:39:18;;;;;;;35.33;22.42;;;;;;;;;;143744;576;45021;-56
2021/11/18 00:41:51;;;;;;;25.15;19.58;;;;;;;;;;143739;623;45030;-55
2021/11/18 00:44:20;;;;;;;32.17;23.58;;;;;;;;;;143743;583;45917;-55
2021/11/18 00:46:52;;;;;;;29.48;21.80;;;;;;;;;;143739;591;45021;-55
2021/11/18 00:49:21;;;;;;;33.17;24.33;;;;;;;;;;143743;593;46020;-56
2021/11/18 00:51:52;;;;;;;32.92;22.33;;;;;;;;;;143738;566;46021;-56
2021/11/18 00:54:31;;;;;;;27.23;21.48;;;;;;;;;;143739;576;45918;-56
2021/11/18 00:57:03;;;;;;;32.65;22.85;;;;;;;;;;143744;580;46018;-55
2021/11/18 00:59:37;;;;;;;33.28;23.85;;;;;;;;;;143740;611;45025;-56
2021/11/18 01:02:09;;;;;;;29.40;19.37;;;;;;;;;;143738;589;46020;-56
2021/11/18 01:04:41;;;;;;;35.92;23.87;;;;;;;;;;143738;586;45917;-56
2021/11/18 01:07:14;;;;;;;31.98;23.98;;;;;;;;;;143740;621;46020;-55
2021/11/18 01:09:46;;;;;;;28.00;20.25;;;;;;;;;;143740;591;45021;-56
2021/11/18 01:12:17;;;;;;;44.70;28.77;;;;;;;;;;143738;649;46020;-56
2021/11/18 01:14:49;;;;;;;33.22;24.85;;;;;;;;;;143740;632;45021;-55
2021/11/18 01:17:20;;;;;;;24.85;20.73;;;;;;;;;;143739;575;45021;-56
2021/11/18 01:19:53;;;;;;;35.25;21.73;;;;;;;;;;143738;569;46012;-55
2021/11/18 01:22:22;;;;;;;32.88;21.73;;;;;;;;;;143740;597;46020;-55
2021/11/18 01:24:51;;;;;;;32.33;21.83;;;;;;;;;;143740;581;46012;-55
2021/11/18 01:27:19;;;;;;;38.15;25.45;;;;;;;;;;143739;615;45020;-56
2021/11/18 01:29:49;;;;;;;30.05;19.37;;;;;;;;;;143738;571;45028;-55
2021/11/18 01:32:17;;;;;;;24.35;17.08;;;;;;;;;;143737;572;46020;-55
2021/11/18 01:34:45;;;;;;;37.13;23.87;;;;;;;;;;143743;579;46020;-55
2021/11/18 01:37:12;;;;;;;33.60;18.50;;;;;;;;;;143742;583;46021;-55
2021/11/18 01:39:39;;;;;;;40.17;24.50;;;;;;;;;;143743;607;45021;-55
2021/11/18 01:42:09;;;;;;;27.73;21.12;;;;;;;;;;143736;627;46020;-55
2021/11/18 01:44:45;;;;;;;35.67;20.62;;;;;;;;;;143743;591;46012;-55
2021/11/18 01:47:14;;;;;;;25.70;19.05;;;;;;;;;;143740;565;46021;-55
2021/11/18 01:49:45;;;;;;;25.75;20.83;;;;;;;;;;143743;570;45020;-55
2021/11/18 01:52:17;;;;;;;30.27;22.60;;;;;;;;;;143738;664;46021;-56
2021/11/18 01:54:45;;;;;;;30.25;21.15;;;;;;;;;;143742;605;45918;-55
2021/11/18 01:57:18;;;;;;;31.37;21.92;;;;;;;;;;143738;630;46020;-56
2021/11/18 01:59:47;;;;;;;26.52;20.20;;;;;;;;;;143744;609;46012;-56
2021/11/18 02:02:16;;;;;;;26.10;18.05;;;;;;;;;;143736;574;46020;-56
2021/11/18 02:04:50;;;;;;;23.45;18.15;;;;;;;;;;143738;583;45918;-56
2021/11/18 02:07:18;;;;;;;29.90;20.77;;;;;;;;;;143737;625;46013;-56
2021/11/18 02:09:47;;;;;;;28.38;20.75;;;;;;;;;;143741;673;45026;-55
2021/11/18 02:12:25;;;;;;;31.02;22.70;;;;;;;;;;143738;585;46020;-55
2021/11/18 02:14:55;;;;;;;29.50;20.58;;;;;;;;;;143739;657;46012;-55
2021/11/18 02:17:26;;;;;;;29.87;21.87;;;;;;;;;;143735;672;46020;-55
2021/11/18 02:20:04;;;;;;;25.30;19.58;;;;;;;;;;143741;601;46020;-55
2021/11/18 02:22:33;;;;;;;42.28;27.30;;;;;;;;;;143741;639;46021;-56
2021/11/18 02:25:05;;;;;;;26.70;19.58;;;;;;;;;;143740;565;46012;-56
2021/11/18 02:27:33;;;;;;;34.70;23.83;;;;;;;;;;143739;579;45020;-55
2021/11/18 02:30:03;;;;;;;35.42;23.00;;;;;;;;;;143738;620;46020;-55
2021/11/18 02:32:37;;;;;;;32.72;24.10;;;;;;;;;;143739;589;45022;-56
2021/11/18 02:35:23;;;;;;;30.02;21.87;;;;;;;;;;143741;615;45020;-55
2021/11/18 02:37:53;;;;;;;23.75;18.75;;;;;;;;;;143743;614;46018;-56
2021/11/18 02:40:23;;;;;;;31.73;22.30;;;;;;;;;;143743;666;45020;-56
2021/11/18 02:42:53;;;;;;;31.83;21.35;;;;;;;;;;143738;618;46020;-56
2021/11/18 02:45:25;;;;;;;34.17;22.98;;;;;;;;;;143741;598;46012;-56
2021/11/18 02:47:55;;;;;;;33.97;23.12;;;;;;;;;;143737;569;46020;-56
2021/11/18 02:50:30;;;;;;;31.00;21.60;;;;;;;;;;143739;606;46020;-56
2021/11/18 02:52:59;;;;;;;39.57;26.37;;;;;;;;;;143743;593;45023;-55
2021/11/18 02:55:30;;;;;;;41.88;27.42;;;;;;;;;;143740;701;45020;-56
2021/11/18 02:57:59;;;;;;;35.90;24.85;;;;;;;;;;143742;597;45020;-55
2021/11/18 03:00:50;;;;;;;36.70;24.63;;;;;;;;;;143740;573;46012;-55
2021/11/18 03:03:19;;;;;;;33.03;22.08;;;;;;;;;;143738;626;46020;-55
2021/11/18 03:05:47;;;;;;;35.65;21.73;;;;;;;;;;143741;567;46013;-55
2021/11/18 03:08:16;;;;;;;33.67;26.70;;;;;;;;;;143739;620;45021;-56
2021/11/18 03:10:44;;;;;;;29.65;22.10;;;;;;;;;;143741;582;46020;-55
2021/11/18 03:13:11;;;;;;;35.42;24.65;;;;;;;;;;143740;583;46021;-55
2021/11/18 03:15:39;;;;;;;35.85;23.05;;;;;;;;;;143739;598;45021;-55
2021/11/18 03:18:06;;;;;;;34.63;25.05;;;;;;;;;;143738;577;46020;-55
2021/11/18 03:20:34;;;;;;;27.20;21.85;;;;;;;;;;143738;584;46012;-56
2021/11/18 03:23:01;;;;;;;33.33;22.35;;;;;;;;;;143741;641;46020;-55
2021/11/18 03:25:32;;;;;;;32.05;22.80;;;;;;;;;;143737;590;46012;-56
2021/11/18 03:28:00;;;;;;;35.42;23.35;;;;;;;;;;143739;603;46018;-55
2021/11/18 03:30:32;;;;;;;34.22;22.92;;;;;;;;;;143739;627;45021;-55
2021/11/18 03:33:02;;;;;;;29.17;19.30;;;;;;;;;;143736;584;46020;-55
2021/11/18 03:35:30;;;;;;;31.90;21.77;;;;;;;;;;143739;634;46012;-55
2021/11/18 03:38:00;;;;;;;27.60;19.42;;;;;;;;;;143742;572;46020;-55
2021/11/18 03:40:29;;;;;;;32.80;24.95;;;;;;;;;;143742;673;46012;-55
2021/11/18 03:42:58;;;;;;;44.85;24.92;;;;;;;;;;143737;653;46020;-56
2021/11/18 03:45:27;;;;;;;33.75;23.67;;;;;;;;;;143737;669;46012;-55
2021/11/18 03:47:55;;;;;;;30.55;19.83;;;;;;;;;;143741;641;45912;-54
2021/11/18 03:50:23;;;;;;;33.75;22.48;;;;;;;;;;143743;624;45026;-55
2021/11/18 03:52:50;;;;;;;27.45;19.95;;;;;;;;;;143739;657;46020;-55
2021/11/18 03:55:19;;;;;;;28.08;19.30;;;;;;;;;;143740;614;46020;-55
2021/11/18 03:57:47;;;;;;;37.10;25.55;;;;;;;;;;143737;646;45021;-55
2021/11/18 04:00:33;;;;;;;42.65;24.63;;;;;;;;;;143743;578;46012;-55
2021/11/18 04:03:02;;;;;;;33.80;21.65;;;;;;;;;;143735;585;46020;-55
2021/11/18 04:05:31;;;;;;;39.35;23.33;;;;;;;;;;143740;571;46012;-54
2021/11/18 04:07:59;;;;;;;24.48;19.50;;;;;;;;;;143740;569;46018;-55
2021/11/18 04:10:30;;;;;;;29.30;19.67;;;;;;;;;;143741;567;46012;-55
2021/11/18 04:12:59;;;;;;;29.50;22.25;;;;;;;;;;143744;698;45022;-55
2021/11/18 04:15:28;;;;;;;27.00;20.58;;;;;;;;;;143739;702;46013;-56
2021/11/18 04:17:57;;;;;;;36.13;24.92;;;;;;;;;;143739;671;46020;-56
2021/11/18 04:20:26;;;;;;;32.60;22.65;;;;;;;;;;143740;565;45020;-55
2021/11/18 04:22:55;;;;;;;22.92;19.33;;;;;;;;;;143736;662;46023;-55
2021/11/18 04:25:30;;;;;;;27.45;19.20;;;;;;;;;;143741;599;46012;-55
2021/11/18 04:27:57;;;;;;;;;;;;;;;;;;143747;981;46021;-55
2021/11/18 04:30:33;;;;;;;31.65;22.77;;;;;;;;;;143750;578;46012;-56
2021/11/18 04:33:00;;;;;;;33.38;22.20;;;;;;;;;;143741;589;46022;-55
2021/11/18 04:35:28;;;;;;;27.67;18.60;;;;;;;;;;143739;588;45021;-56
2021/11/18 04:37:56;;;;;;;26.02;19.20;;;;;;;;;;143740;583;46020;-55
2021/11/18 04:40:24;;;;;;;37.63;24.55;;;;;;;;;;143747;579;45020;-54
2021/11/18 04:42:51;;;;;;;33.78;23.90;;;;;;;;;;143739;585;45022;-55
2021/11/18 04:45:22;;;;;;;35.03;24.63;;;;;;;;;;143737;622;46012;-55
2021/11/18 04:47:49;;;;;;;37.25;23.62;;;;;;;;;;143736;587;46020;-54
2021/11/18 04:50:17;;;;;;;33.03;23.50;;;;;;;;;;143738;659;46020;-55
2021/11/18 04:52:46;;;;;;;28.33;19.00;;;;;;;;;;143739;564;45023;-54
2021/11/18 04:55:19;;;;;;;33.83;23.27;;;;;;;;;;143740;564;45020;-55
2021/11/18 04:57:47;;;;;;;31.70;23.85;;;;;;;;;;143739;588;46021;-55
2021/11/18 05:00:20;;;;;;;28.92;21.80;;;;;;;;;;143745;653;45033;-55
2021/11/18 05:02:48;;;;;;;37.90;22.45;;;;;;;;;;143740;594;46020;-55
2021/11/18 05:05:16;;;;;;;29.85;22.30;;;;;;;;;;143742;582;45021;-54
2021/11/18 05:07:44;;;;;;;43.40;26.02;;;;;;;;;;143737;647;45021;-55
2021/11/18 05:10:12;;;;;;;24.63;19.58;;;;;;;;;;143738;613;45020;-56
2021/11/18 05:12:40;;;;;;;27.90;20.70;;;;;;;;;;143735;589;46020;-55
2021/11/18 05:15:12;;;;;;;38.28;26.12;;;;;;;;;;143737;564;46021;-55
2021/11/18 05:17:40;;;;;;;40.28;21.73;;;;;;;;;;143742;566;45020;-55
2021/11/18 05:20:09;;;;;;;44.47;25.62;;;;;;;;;;143740;596;46012;-56
2021/11/18 05:22:36;;;;;;;34.50;25.92;;;;;;;;;;143737;582;45049;-56
2021/11/18 05:25:05;;;;;;;37.95;25.88;;;;;;;;;;143738;692;46020;-54
2021/11/18 05:27:32;;;;;;;38.92;25.88;;;;;;;;;;143736;680;46020;-55
2021/11/18 05:30:00;;;;;;;32.65;23.05;;;;;;;;;;143737;572;46021;-55
2021/11/18 05:32:28;;;;;;;34.00;24.77;;;;;;;;;;143736;582;46022;-56
2021/11/18 05:34:55;;;;;;;31.25;21.37;;;;;;;;;;143735;566;46012;-54
2021/11/18 05:37:23;;;;;;;29.25;22.33;;;;;;;;;;143737;606;45021;-55
2021/11/18 05:39:52;;;;;;;37.63;28.65;;;;;;;;;;143737;581;46012;-55
2021/11/18 05:42:19;;;;;;;35.08;26.12;;;;;;;;;;143737;581;46022;-55
2021/11/18 05:44:49;;;;;;;34.83;26.35;;;;;;;;;;143740;591;46020;-55
2021/11/18 05:47:20;;;;;;;42.70;26.95;;;;;;;;;;143737;579;45049;-54
2021/11/18 05:49:48;;;;;;;38.95;28.75;;;;;;;;;;143741;578;45021;-54
2021/11/18 05:52:16;;;;;;;31.90;23.35;;;;;;;;;;143737;624;46023;-55
2021/11/18 05:54:43;;;;;;;40.10;25.92;;;;;;;;;;143735;607;46012;-55
2021/11/18 05:57:10;;;;;;;25.08;18.77;;;;;;;;;;143739;596;45021;-56
2021/11/18 05:59:38;;;;;;;36.17;27.25;;;;;;;;;;143743;564;45021;-56
2021/11/18 06:02:06;;;;;;;40.08;25.95;;;;;;;;;;143736;588;45022;-55
2021/11/18 06:04:34;;;;;;;39.10;21.12;;;;;;;;;;143739;569;46013;-55
2021/11/18 06:07:02;;;;;;;30.65;22.70;;;;;;;;;;143740;612;46021;-55
2021/11/18 06:09:29;;;;;;;47.05;30.08;;;;;;;;;;143737;594;46012;-55
2021/11/18 06:11:58;;;;;;;34.92;25.30;;;;;;;;;;143741;600;45022;-55
2021/11/18 06:14:28;;;;;;;36.95;27.80;;;;;;;;;;143739;566;45021;-54
2021/11/18 06:16:56;;;;;;;42.33;26.58;;;;;;;;;;143740;579;45020;-54
2021/11/18 06:19:24;;;;;;;32.78;23.62;;;;;;;;;;143737;750;45020;-61
2021/11/18 06:21:53;;;;;;;41.28;26.37;;;;;;;;;;143735;567;46021;-61
2021/11/18 06:24:21;;;;;;;41.33;29.58;;;;;;;;;;143738;624;46020;-59
2021/11/18 06:26:51;;;;;;;42.62;26.67;;;;;;;;;;143733;570;45912;-60
2021/11/18 06:29:22;;;;;;;43.10;29.37;;;;;;;;;;143736;571;45032;-59
2021/11/18 06:31:52;;;;;;;43.70;30.23;;;;;;;;;;143735;671;46020;-59
2021/11/18 06:34:20;;;;;;;46.17;27.90;;;;;;;;;;143736;591;46020;-60
2021/11/18 06:36:47;;;;;;;31.85;24.37;;;;;;;;;;143736;583;46021;-60
2021/11/18 06:39:15;;;;;;;47.83;27.58;;;;;;;;;;143736;615;45020;-59
2021/11/18 06:41:42;;;;;;;34.15;24.45;;;;;;;;;;143737;637;46022;-61
2021/11/18 06:44:10;;;;;;;37.55;24.95;;;;;;;;;;143733;622;46021;-60
2021/11/18 06:46:37;;;;;;;45.15;31.95;;;;;;;;;;143736;594;46018;-59
2021/11/18 06:49:07;;;;;;;34.25;27.48;;;;;;;;;;143738;581;45021;-60
2021/11/18 06:51:38;;;;;;;47.00;33.97;;;;;;;;;;143732;575;46912;-59
2021/11/18 06:54:05;;;;;;;28.83;22.17;;;;;;;;;;143737;687;46012;-61
2021/11/18 06:56:33;;;;;;;40.38;30.00;;;;;;;;;;143735;576;46020;-59
2021/11/18 06:59:01;;;;;;;55.83;36.60;;;;;;;;;;143737;574;45021;-61
2021/11/18 07:01:28;;;;;;;34.45;26.55;;;;;;;;;;143735;679;46020;-59
2021/11/18 07:03:55;;;;;;;32.30;23.38;;;;;;;;;;143736;583;46030;-58
2021/11/18 07:06:24;;;;;;;32.58;24.40;;;;;;;;;;143734;585;46018;-58
2021/11/18 07:08:51;;;;;;;32.75;22.75;;;;;;;;;;143736;593;45034;-59
2021/11/18 07:11:20;;;;;;;38.58;23.42;;;;;;;;;;143736;711;46022;-58
2021/11/18 07:13:47;;;;;;;31.92;20.35;;;;;;;;;;143733;612;46013;-58
2021/11/18 07:16:17;;;;;;;29.83;19.12;;;;;;;;;;143734;564;46018;-57
2021/11/18 07:18:44;;;;;;;28.12;20.05;;;;;;;;;;143742;622;45020;-58
2021/11/18 07:21:12;;;;;;;38.08;17.92;;;;;;;;;;143739;589;46023;-57
2021/11/18 07:23:40;;;;;;;28.40;16.40;;;;;;;;;;143740;573;45020;-57
2021/11/18 07:26:08;;;;;;;27.30;17.73;;;;;;;;;;143734;585;46020;-58
2021/11/18 07:28:38;;;;;;;25.02;16.70;;;;;;;;;;143740;569;45021;-59
2021/11/18 07:31:05;;;;;;;27.60;16.23;;;;;;;;;;143737;600;46020;-58
2021/11/18 07:33:33;;;;;;;25.37;16.45;;;;;;;;;;143739;622;46012;-57
2021/11/18 07:36:00;;;;;;;30.00;17.12;;;;;;;;;;143738;588;46018;-59
2021/11/18 07:38:31;;;;;;;29.58;15.93;;;;;;;;;;143740;595;46010;-59
2021/11/18 07:40:59;;;;;;;24.58;16.30;;;;;;;;;;143735;569;46020;-58
2021/11/18 07:43:30;;;;;;;29.60;20.33;;;;;;;;;;143739;589;46012;-58
2021/11/18 07:46:00;;;;;;;24.63;16.65;;;;;;;;;;143736;812;45020;-58
2021/11/18 07:48:28;;;;;;;26.62;17.30;;;;;;;;;;143738;638;46011;-58
2021/11/18 07:50:55;;;;;;;32.00;19.77;;;;;;;;;;143737;658;46021;-58
2021/11/18 07:53:23;;;;;;;29.45;17.17;;;;;;;;;;143738;760;46012;-57
2021/11/18 07:55:51;;;;;;;28.45;20.25;;;;;;;;;;143737;570;46020;-56
2021/11/18 07:58:18;;;;;;;30.37;19.80;;;;;;;;;;143735;629;46010;-58
2021/11/18 08:00:47;;;;;;;26.62;15.13;;;;;;;;;;143736;591;46020;-58
2021/11/18 08:03:15;;;;;;;27.80;17.10;;;;;;;;;;143738;610;46020;-58
2021/11/18 08:05:43;;;;;;;25.52;18.25;;;;;;;;;;143734;629;46021;-57
2021/11/18 08:08:10;;;;;;;29.67;19.30;;;;;;;;;;143740;610;46010;-57
2021/11/18 08:10:39;;;;;;;31.27;15.15;;;;;;;;;;143739;627;46020;-57
2021/11/18 08:13:06;;;;;;;28.02;18.62;;;;;;;;;;143738;717;46013;-57
2021/11/18 08:15:34;;;;;;;24.67;16.33;;;;;;;;;;143737;597;46020;-57
2021/11/18 08:18:01;;;;;;;29.12;15.45;;;;;;;;;;143740;574;45022;-57
2021/11/18 08:20:28;;;;;;;20.00;15.23;;;;;;;;;;143738;588;46023;-56
2021/11/18 08:22:56;;;;;;;25.12;14.07;;;;;;;;;;143737;585;46012;-57
2021/11/18 08:25:27;;;;;;;21.37;13.82;;;;;;;;;;143739;613;46020;-58
2021/11/18 08:27:54;;;;;;;20.23;13.40;;;;;;;;;;143740;639;45025;-59
2021/11/18 08:30:25;;;;;;;27.05;13.02;;;;;;;;;;143734;570;46020;-58
2021/11/18 08:32:57;;;;;;;24.17;13.13;;;;;;;;;;143731;580;50012;-58
2021/11/18 08:35:31;;;;;;;24.50;14.65;;;;;;;;;;143737;633;46021;-58
2021/11/18 08:38:03;;;;;;;16.98;12.32;;;;;;;;;;143736;666;45020;-58
2021/11/18 08:40:31;;;;;;;21.40;13.25;;;;;;;;;;143738;711;46021;-59
2021/11/18 08:42:58;;;;;;;13.50;10.98;;;;;;;;;;143739;604;46021;-58
2021/11/18 08:45:25;;;;;;;18.27;11.05;;;;;;;;;;143738;565;46020;-59
2021/11/18 08:47:53;;;;;;;20.12;12.63;;;;;;;;;;143742;579;46010;-58
2021/11/18 08:50:22;;;;;;;31.45;19.90;;;;;;;;;;143739;569;46021;-58
2021/11/18 08:52:52;;;;;;;33.13;20.35;;;;;;;;;;143735;565;48012;-58
2021/11/18 08:55:26;;;;;;;16.90;12.20;;;;;;;;;;143734;569;45043;-58
2021/11/18 08:57:53;;;;;;;;;;;;;;;;;;143741;981;47021;-58
2021/11/18 09:00:31;;;;;;;22.58;16.35;;;;;;;;;;143744;589;46022;-58
2021/11/18 09:02:58;;;;;;;20.83;12.70;;;;;;;;;;143736;573;46013;-57
2021/11/18 09:05:26;;;;;;;21.80;14.52;;;;;;;;;;143737;627;46020;-59
2021/11/18 09:07:54;;;;;;;23.25;12.27;;;;;;;;;;143741;608;45020;-58
2021/11/18 09:10:21;;;;;;;16.55;10.60;;;;;;;;;;143739;597;46022;-58
2021/11/18 09:12:48;;;;;;;21.02;11.48;;;;;;;;;;143736;588;46013;-57
2021/11/18 09:15:20;;;;;;;22.67;13.07;;;;;;;;;;143740;573;46018;-57
2021/11/18 09:17:48;;;;;;;20.23;15.20;;;;;;;;;;143740;683;45020;-57
2021/11/18 09:20:22;;;;;;;20.52;11.10;;;;;;;;;;143734;612;46023;-58
2021/11/18 09:22:50;;;;;;;23.33;12.23;;;;;;;;;;143737;586;46012;-58
2021/11/18 09:25:18;;;;;;;20.83;13.80;;;;;;;;;;143737;646;46020;-58
2021/11/18 09:27:49;;;;;;;33.50;12.98;;;;;;;;;;143738;613;46012;-58
2021/11/18 09:30:30;;;;;;;22.27;14.13;;;;;;;;;;143739;626;46020;-59
2021/11/18 09:32:58;;;;;;;21.35;12.90;;;;;;;;;;143738;572;46020;-57
2021/11/18 09:35:29;;;;;;;19.15;11.00;;;;;;;;;;143739;616;45021;-58
2021/11/18 09:37:57;;;;;;;18.87;10.10;;;;;;;;;;143742;657;45020;-59
2021/11/18 09:40:30;;;;;;;19.27;12.02;;;;;;;;;;143739;623;46020;-58
2021/11/18 09:43:44;;;;;;;15.77;8.90;;;;;;;;;;143737;699;46012;-58
2021/11/18 09:46:52;;;;;;;19.60;11.68;;;;;;;;;;143735;640;46020;-59
2021/11/18 09:50:10;;;;;;;14.13;8.32;;;;;;;;;;143742;611;45021;-59
2021/11/18 09:53:20;;;;;;;15.35;8.93;;;;;;;;;;143740;648;46020;-58
2021/11/18 09:56:05;;;;;;;17.30;10.32;;;;;;;;;;143738;572;46012;-59
2021/11/18 09:58:52;;;;;;;13.25;10.00;;;;;;;;;;143738;607;46018;-58
2021/11/18 10:02:10;;;;;;;13.15;9.38;;;;;;;;;;143741;615;46012;-58
2021/11/18 10:04:58;;;;;;;18.27;11.88;;;;;;;;;;143739;577;46023;-59
2021/11/18 10:07:45;;;;;;;12.55;8.77;;;;;;;;;;143739;570;46012;-58
2021/11/18 10:11:00;;;;;;;17.20;9.35;;;;;;;;;;143741;579;46019;-58
2021/11/18 10:13:49;;;;;;;19.50;13.32;;;;;;;;;;143743;628;45030;-59
2021/11/18 10:16:29;;;;;;;11.60;9.40;;;;;;;;;;143735;585;46020;-60
2021/11/18 10:19:03;;;;;;;21.80;16.52;;;;;;;;;;143740;620;46003;-59
2021/11/18 10:21:39;;;;;;;22.77;15.68;;;;;;;;;;143741;600;46018;-60
2021/11/18 10:24:21;;;;;;;15.80;10.68;;;;;;;;;;143739;591;45020;-58
2021/11/18 10:26:55;;;;;;;17.02;13.02;;;;;;;;;;143737;592;46022;-59
2021/11/18 10:29:30;;;;;;;20.48;14.68;;;;;;;;;;143739;727;46012;-58
2021/11/18 10:32:27;;;;;;;13.55;10.43;;;;;;;;;;143740;708;46018;-58
2021/11/18 10:35:16;;;;;;;17.62;10.40;;;;;;;;;;143740;591;47020;-58
2021/11/18 10:37:49;;;;;;;20.12;14.98;;;;;;;;;;143739;570;46024;-58
2021/11/18 10:40:29;;;;;;;17.70;11.27;;;;;;;;;;143736;587;46013;-58
2021/11/18 10:43:31;;;;;;;18.42;11.38;;;;;;;;;;143734;797;46018;-58
2021/11/18 10:46:34;;;;;;;17.92;10.73;;;;;;;;;;143741;655;46012;-59
2021/11/18 10:49:09;;;;;;;36.58;25.75;;;;;;;;;;143737;632;46025;-58
2021/11/18 10:51:55;;;;;;;23.42;16.77;;;;;;;;;;143734;710;46012;-59
2021/11/18 10:54:40;;;;;;;24.23;15.52;;;;;;;;;;143737;636;46020;-57
2021/11/18 10:57:14;;;;;;;25.10;16.45;;;;;;;;;;143739;670;45021;-57
2021/11/18 10:59:46;;;;;;;23.23;12.55;;;;;;;;;;143738;604;46022;-58
2021/11/18 11:02:32;;;;;;;19.52;13.68;;;;;;;;;;143734;629;46013;-58
2021/11/18 11:05:20;;;;;;;18.67;13.00;;;;;;;;;;143738;715;46021;-58
2021/11/18 11:07:48;;;;;;;20.35;15.20;;;;;;;;;;143742;585;45020;-58
2021/11/18 11:10:18;;;;;;;18.30;13.27;;;;;;;;;;143734;591;46021;-57
2021/11/18 11:13:11;;;;;;;20.08;13.57;;;;;;;;;;143736;569;46012;-57
2021/11/18 11:16:20;;;;;;;14.95;10.88;;;;;;;;;;143731;622;46020;-57
2021/11/18 11:19:30;;;;;;;18.92;11.00;;;;;;;;;;143740;570;46012;-57
2021/11/18 11:22:39;;;;;;;14.80;10.38;;;;;;;;;;143739;853;46024;-58
2021/11/18 11:25:57;;;;;;;16.65;11.45;;;;;;;;;;143740;698;45031;-59
2021/11/18 11:29:02;;;;;;;14.63;9.80;;;;;;;;;;143739;703;46018;-58
2021/11/18 11:32:12;;;;;;;18.05;12.88;;;;;;;;;;143743;607;45022;-59
2021/11/18 11:35:05;;;;;;;17.50;9.60;;;;;;;;;;143739;598;46021;-58
2021/11/18 11:38:15;;;;;;;21.23;14.20;;;;;;;;;;143740;677;46020;-58
2021/11/18 11:41:28;;;;;;;19.95;9.88;;;;;;;;;;143735;668;46018;-58
2021/11/18 11:44:37;;;;;;;15.77;10.63;;;;;;;;;;143743;609;45022;-58
2021/11/18 11:47:43;;;;;;;14.43;10.48;;;;;;;;;;143738;589;46021;-59
2021/11/18 11:50:54;;;;;;;13.77;10.38;;;;;;;;;;143736;586;46919;-59
2021/11/18 11:53:59;;;;;;;23.80;15.68;;;;;;;;;;143739;903;46020;-57
2021/11/18 11:56:43;;;;;;;22.97;15.83;;;;;;;;;;143741;755;46012;-57
2021/11/18 11:59:25;;;;;;;23.85;16.17;;;;;;;;;;143738;598;46022;-57
2021/11/18 12:02:25;;;;;;;27.67;18.58;;;;;;;;;;143735;583;46013;-57
2021/11/18 12:04:57;;;;;;;24.50;14.93;;;;;;;;;;143737;565;46023;-57
2021/11/18 12:07:53;;;;;;;26.00;15.80;;;;;;;;;;143737;565;45020;-57
2021/11/18 12:10:48;;;;;;;28.85;18.40;;;;;;;;;;143735;576;46021;-58
2021/11/18 12:13:50;;;;;;;23.70;16.30;;;;;;;;;;143737;767;46012;-57
2021/11/18 12:16:48;;;;;;;18.30;14.27;;;;;;;;;;143740;569;46018;-56
2021/11/18 12:19:45;;;;;;;22.73;16.98;;;;;;;;;;143741;644;45021;-56
2021/11/18 12:22:34;;;;;;;19.98;15.55;;;;;;;;;;143736;642;46022;-56
2021/11/18 12:25:37;;;;;;;25.77;17.33;;;;;;;;;;143739;578;46012;-58
2021/11/18 12:28:32;;;;;;;25.83;15.82;;;;;;;;;;143737;646;46022;-58
2021/11/18 12:31:20;;;;;;;22.13;12.88;;;;;;;;;;143739;582;46020;-57
2021/11/18 12:33:58;;;;;;;18.25;11.98;;;;;;;;;;143738;569;46023;-56
2021/11/18 12:37:13;;;;;;;19.17;12.48;;;;;;;;;;143738;791;46012;-56
2021/11/18 12:40:33;;;;;;;17.83;12.35;;;;;;;;;;143735;589;46021;-57
2021/11/18 12:43:51;;;;;;;16.48;11.85;;;;;;;;;;143741;585;45020;-58
2021/11/18 12:47:08;;;;;;;15.65;11.82;;;;;;;;;;143740;599;46024;-58
2021/11/18 12:50:20;;;;;;;24.63;11.18;;;;;;;;;;143741;589;46012;-56
2021/11/18 12:53:30;;;;;;;16.83;11.98;;;;;;;;;;143741;588;46018;-57
2021/11/18 12:56:24;;;;;;;16.55;11.55;;;;;;;;;;143741;583;45035;-58
2021/11/18 12:59:07;;;;;;;17.10;10.93;;;;;;;;;;143740;609;46020;-58
2021/11/18 13:01:41;;;;;;;13.62;10.85;;;;;;;;;;143740;575;46013;-56
2021/11/18 13:04:08;;;;;;;15.23;10.15;;;;;;;;;;143739;634;46020;-58
2021/11/18 13:06:54;;;;;;;14.40;11.23;;;;;;;;;;143740;570;45020;-55
2021/11/18 13:09:21;;;;;;;14.55;11.07;;;;;;;;;;143731;618;46023;-55
2021/11/18 13:12:01;;;;;;;14.18;11.05;;;;;;;;;;143739;573;46012;-55
2021/11/18 13:14:53;;;;;;;15.25;10.95;;;;;;;;;;143743;641;45044;-55
2021/11/18 13:17:45;;;;;;;19.02;10.70;;;;;;;;;;143742;626;45021;-57
2021/11/18 13:20:53;;;;;;;19.42;11.30;;;;;;;;;;143741;565;46020;-58
2021/11/18 13:23:58;;;;;;;16.05;9.70;;;;;;;;;;143740;574;46013;-56
2021/11/18 13:26:30;;;;;;;14.43;10.13;;;;;;;;;;143742;610;46018;-56
2021/11/18 13:29:24;;;;;;;15.20;10.05;;;;;;;;;;143745;582;45020;-55
2021/11/18 13:32:12;;;;;;;14.15;9.73;;;;;;;;;;143743;602;46021;-57
2021/11/18 13:34:42;;;;;;;16.30;10.77;;;;;;;;;;143739;599;46920;-56
2021/11/18 13:37:18;;;;;;;25.17;10.88;;;;;;;;;;143734;569;46020;-56
2021/11/18 13:40:17;;;;;;;17.33;9.63;;;;;;;;;;143741;634;45021;-57
2021/11/18 13:43:06;;;;;;;14.70;10.13;;;;;;;;;;143742;618;46024;-58
2021/11/18 13:45:38;;;;;;;13.13;10.38;;;;;;;;;;143743;637;46020;-58
2021/11/18 13:48:14;;;;;;;15.85;10.85;;;;;;;;;;143741;615;46020;-56
2021/11/18 13:50:56;;;;;;;12.98;10.43;;;;;;;;;;143744;631;45020;-58
2021/11/18 13:53:27;;;;;;;18.37;10.80;;;;;;;;;;143742;598;46021;-57
2021/11/18 13:56:06;;;;;;;17.42;10.80;;;;;;;;;;143739;621;46013;-56
2021/11/18 13:58:56;;;;;;;16.87;10.75;;;;;;;;;;143743;654;45020;-57
2021/11/18 14:01:32;;;;;;;15.57;10.98;;;;;;;;;;143744;600;45026;-56
2021/11/18 14:04:17;;;;;;;14.00;10.18;;;;;;;;;;143736;587;46023;-57
2021/11/18 14:06:54;;;;;;;13.70;10.77;;;;;;;;;;143740;587;46012;-57
2021/11/18 14:09:41;;;;;;;14.10;9.30;;;;;;;;;;143740;613;45021;-57
2021/11/18 14:12:30;;;;;;;18.73;10.85;;;;;;;;;;143744;618;45020;-57
2021/11/18 14:15:20;;;;;;;14.00;10.27;;;;;;;;;;143741;615;46020;-58
2021/11/18 14:18:00;;;;;;;15.77;10.52;;;;;;;;;;143741;560;46012;-56
2021/11/18 14:20:53;;;;;;;17.05;10.18;;;;;;;;;;143742;596;46020;-57
2021/11/18 14:23:59;;;;;;;15.30;10.70;;;;;;;;;;143741;611;45020;-57
2021/11/18 14:26:38;;;;;;;17.77;11.68;;;;;;;;;;143739;594;46025;-56
2021/11/18 14:29:31;;;;;;;16.23;10.52;;;;;;;;;;143741;578;46012;-57
2021/11/18 14:32:29;;;;;;;12.65;9.55;;;;;;;;;;143737;567;46021;-56
2021/11/18 14:35:42;;;;;;;14.90;10.88;;;;;;;;;;143741;575;47014;-56
2021/11/18 14:38:43;;;;;;;18.08;12.15;;;;;;;;;;143741;583;46021;-58
2021/11/18 14:41:32;;;;;;;19.48;11.27;;;;;;;;;;143739;613;46012;-58
2021/11/18 14:44:09;;;;;;;19.25;10.90;;;;;;;;;;143740;564;46020;-56
2021/11/18 14:46:59;;;;;;;14.90;10.85;;;;;;;;;;143742;635;46020;-56
2021/11/18 14:49:39;;;;;;;15.10;10.20;;;;;;;;;;143739;570;47020;-56
2021/11/18 14:52:46;;;;;;;13.00;9.93;;;;;;;;;;143741;569;46012;-57
2021/11/18 14:55:34;;;;;;;15.23;9.98;;;;;;;;;;143744;579;46018;-57
2021/11/18 14:58:17;;;;;;;11.88;9.20;;;;;;;;;;143742;569;46020;-58
2021/11/18 15:01:26;;;;;;;17.20;9.13;;;;;;;;;;143736;607;46021;-57
2021/11/18 15:04:47;;;;;;;18.02;10.10;;;;;;;;;;143742;589;46012;-57
2021/11/18 15:07:32;;;;;;;14.52;9.73;;;;;;;;;;143744;565;45032;-58
2021/11/18 15:10:03;;;;;;;17.17;10.07;;;;;;;;;;143745;576;45021;-57
2021/11/18 15:12:33;;;;;;;12.95;9.80;;;;;;;;;;143742;589;46030;-58
2021/11/18 15:15:03;;;;;;;14.82;10.35;;;;;;;;;;143741;600;46012;-58